createdAt,value
2023-02-04T00:02:10.954Z,2.00
2023-02-04T00:04:37.287Z,2.25
2023-02-04T00:07:03.776Z,2.08
2023-02-04T00:09:30.376Z,2.30
2023-02-04T00:11:56.814Z,2.13
2023-02-04T00:14:23.475Z,2.53
2023-02-04T00:16:49.886Z,2.63
2023-02-04T00:19:16.434Z,2.38
2023-02-04T00:21:42.838Z,2.45
2023-02-04T00:24:09.664Z,2.92
2023-02-04T00:26:36.152Z,2.80
2023-02-04T00:29:03.252Z,3.15
2023-02-04T00:31:29.665Z,2.65
2023-02-04T00:33:56.175Z,2.38
2023-02-04T00:36:22.565Z,2.85
2023-02-04T00:38:49.556Z,2.70
2023-02-04T00:41:16.204Z,2.88
2023-02-04T00:43:42.985Z,3.22
2023-02-04T00:46:09.743Z,2.63
2023-02-04T00:48:36.557Z,3.40
2023-02-04T00:51:02.948Z,3.20
2023-02-04T00:53:29.437Z,3.08
2023-02-04T00:55:55.922Z,3.25
2023-02-04T00:58:22.306Z,3.05
2023-02-04T01:00:48.680Z,2.70
2023-02-04T01:03:15.898Z,3.58
2023-02-04T01:05:42.311Z,3.00
2023-02-04T01:08:09.158Z,3.25
2023-02-04T01:10:35.671Z,2.85
2023-02-04T01:13:02.253Z,3.22
2023-02-04T01:15:28.650Z,3.97
2023-02-04T01:17:55.382Z,3.22
2023-02-04T01:20:21.939Z,3.40
2023-02-04T01:22:48.410Z,3.22
2023-02-04T01:25:14.844Z,3.10
2023-02-04T01:27:41.514Z,3.50
2023-02-04T01:30:08.045Z,3.78
2023-02-04T01:32:34.794Z,3.10
2023-02-04T01:35:01.294Z,3.17
2023-02-04T01:37:27.906Z,3.20
2023-02-04T01:39:54.349Z,3.30
2023-02-04T01:42:20.903Z,3.13
2023-02-04T01:44:47.370Z,3.15
2023-02-04T01:47:14.062Z,3.03
2023-02-04T01:49:40.731Z,3.50
2023-02-04T01:52:07.143Z,2.90
2023-02-04T01:54:33.579Z,2.92
2023-02-04T01:56:59.972Z,3.60
2023-02-04T01:59:26.436Z,2.95
2023-02-04T02:01:53.110Z,3.22
2023-02-04T02:04:20.104Z,3.15
2023-02-04T02:06:46.963Z,3.08
2023-02-04T02:09:13.588Z,3.53
2023-02-04T02:11:40.021Z,3.25
2023-02-04T02:14:06.619Z,3.15
2023-02-04T02:16:33.199Z,2.72
2023-02-04T02:19:01.260Z,3.17
2023-02-04T02:21:27.671Z,3.22
2023-02-04T02:23:54.124Z,2.70
2023-02-04T02:26:20.632Z,2.75
2023-02-04T02:28:47.132Z,2.95
2023-02-04T02:31:13.804Z,2.90
2023-02-04T02:33:40.778Z,2.50
2023-02-04T02:36:07.378Z,3.15
2023-02-04T02:38:33.811Z,2.78
2023-02-04T02:41:00.184Z,2.70
2023-02-04T02:43:27.049Z,2.70
2023-02-04T02:45:53.782Z,2.70
2023-02-04T02:48:20.312Z,2.92
2023-02-04T02:50:46.721Z,2.60
2023-02-04T02:53:13.248Z,2.55
2023-02-04T02:55:39.838Z,2.75
2023-02-04T02:58:06.425Z,2.70
2023-02-04T03:00:33.163Z,2.50
2023-02-04T03:03:00.045Z,2.60
2023-02-04T03:05:26.473Z,2.55
2023-02-04T03:07:53.046Z,2.30
2023-02-04T03:10:19.901Z,2.70
2023-02-04T03:12:46.452Z,2.88
2023-02-04T03:15:12.780Z,2.58
2023-02-04T03:17:39.121Z,2.75
2023-02-04T03:20:05.832Z,2.60
2023-02-04T03:22:32.208Z,2.40
2023-02-04T03:24:58.805Z,2.53
2023-02-04T03:27:25.337Z,2.60
2023-02-04T03:29:52.396Z,2.50
2023-02-04T03:32:18.749Z,3.00
2023-02-04T03:34:45.289Z,2.50
2023-02-04T03:37:12.230Z,2.60
2023-02-04T03:39:38.889Z,2.42
2023-02-04T03:42:05.207Z,2.45
2023-02-04T03:44:31.966Z,2.40
2023-02-04T03:46:58.513Z,2.30
2023-02-04T03:49:24.989Z,2.45
2023-02-04T03:51:51.461Z,2.67
2023-02-04T03:54:18.008Z,2.50
2023-02-04T03:56:44.748Z,2.53
2023-02-04T03:59:11.128Z,2.30
2023-02-04T04:01:37.537Z,2.40
2023-02-04T04:04:04.020Z,2.30
2023-02-04T04:06:30.467Z,2.30
2023-02-04T04:08:57.294Z,2.22
2023-02-04T04:11:23.687Z,2.20
2023-02-04T04:13:50.199Z,2.20
2023-02-04T04:16:17.150Z,2.30
2023-02-04T04:18:43.616Z,2.42
2023-02-04T04:21:09.973Z,2.22
2023-02-04T04:23:36.508Z,2.15
2023-02-04T04:26:02.985Z,2.28
2023-02-04T04:28:29.389Z,2.30
2023-02-04T04:30:56.261Z,1.98
2023-02-04T04:33:23.487Z,2.20
2023-02-04T04:35:49.982Z,2.28
2023-02-04T04:38:16.395Z,2.08
2023-02-04T04:40:42.805Z,2.00
2023-02-04T04:43:09.353Z,2.00
2023-02-04T04:45:35.707Z,2.28
2023-02-04T04:48:03.374Z,2.35
2023-02-04T04:50:30.132Z,1.90
2023-02-04T04:52:56.810Z,2.33
2023-02-04T04:55:23.281Z,1.80
2023-02-04T04:57:49.651Z,2.10
2023-02-04T05:00:16.128Z,2.20
2023-02-04T05:02:42.560Z,2.10
2023-02-04T05:05:09.557Z,2.28
2023-02-04T05:07:36.456Z,2.05
2023-02-04T05:10:03.188Z,1.90
2023-02-04T05:12:29.517Z,1.90
2023-02-04T05:14:55.900Z,2.25
2023-02-04T05:17:22.436Z,2.13
2023-02-04T05:19:48.985Z,2.22
2023-02-04T05:22:15.465Z,2.10
2023-02-04T05:24:42.082Z,2.05
2023-02-04T05:27:08.591Z,2.10
2023-02-04T05:29:35.084Z,2.03
2023-02-04T05:32:01.681Z,2.00
2023-02-04T05:34:28.150Z,2.17
2023-02-04T05:36:54.989Z,2.00
2023-02-04T05:39:21.516Z,2.10
2023-02-04T05:41:48.068Z,2.20
2023-02-04T05:44:14.515Z,2.00
2023-02-04T05:46:40.967Z,2.10
2023-02-04T05:49:07.356Z,1.88
2023-02-04T05:51:33.743Z,2.25
2023-02-04T05:54:00.136Z,2.00
2023-02-04T05:56:27.003Z,2.20
2023-02-04T05:58:53.445Z,2.15
2023-02-04T06:01:19.927Z,2.20
2023-02-04T06:03:46.344Z,2.05
2023-02-04T06:06:12.662Z,2.17
2023-02-04T06:08:39.434Z,1.73
2023-02-04T06:11:05.878Z,1.98
2023-02-04T06:13:32.515Z,2.00
2023-02-04T06:15:58.923Z,1.95
2023-02-04T06:18:25.614Z,2.30
2023-02-04T06:20:52.125Z,1.95
2023-02-04T06:23:18.631Z,1.73
2023-02-04T06:25:45.170Z,2.13
2023-02-04T06:28:12.164Z,2.17
2023-02-04T06:30:38.662Z,2.00
2023-02-04T06:33:05.367Z,2.25
2023-02-04T06:35:31.783Z,1.75
2023-02-04T06:37:58.200Z,1.85
2023-02-04T06:40:24.904Z,2.03
2023-02-04T06:42:51.532Z,2.00
2023-02-04T06:45:17.981Z,2.00
2023-02-04T06:48:06.753Z,2.05
2023-02-04T06:50:32.155Z,2.10
2023-02-04T06:52:58.742Z,2.03
2023-02-04T06:55:25.603Z,2.00
2023-02-04T06:57:52.475Z,1.90
2023-02-04T07:00:18.792Z,1.90
2023-02-04T07:02:45.479Z,1.95
2023-02-04T07:05:11.966Z,1.98
2023-02-04T07:07:38.409Z,1.83
2023-02-04T07:10:05.336Z,2.22
2023-02-04T07:12:32.146Z,2.00
2023-02-04T07:14:58.603Z,1.95
2023-02-04T07:17:24.966Z,1.80
2023-02-04T07:19:51.418Z,2.15
2023-02-04T07:22:18.177Z,2.38
2023-02-04T07:24:44.683Z,2.60
2023-02-04T07:27:11.024Z,2.20
2023-02-04T07:29:37.465Z,2.67
2023-02-04T07:32:04.026Z,2.65
2023-02-04T07:34:30.463Z,2.88
2023-02-04T07:36:57.352Z,2.70
2023-02-04T07:39:23.902Z,2.88
2023-02-04T07:41:50.780Z,2.78
2023-02-04T07:44:17.541Z,2.70
2023-02-04T07:46:43.991Z,3.30
2023-02-04T07:49:10.965Z,3.38
2023-02-04T07:51:37.346Z,3.08
2023-02-04T07:54:03.871Z,3.20
2023-02-04T07:56:30.582Z,3.05
2023-02-04T07:58:58.093Z,3.20
2023-02-04T08:01:24.499Z,3.10
2023-02-04T08:03:50.896Z,3.00
2023-02-04T08:06:17.580Z,3.20
2023-02-04T08:08:44.390Z,3.08
2023-02-04T08:11:10.940Z,3.25
2023-02-04T08:13:37.699Z,3.10
2023-02-04T08:16:04.266Z,3.05
2023-02-04T08:18:30.932Z,3.15
2023-02-04T08:20:57.455Z,3.28
2023-02-04T08:23:24.074Z,2.53
2023-02-04T08:25:50.986Z,2.80
2023-02-04T08:28:17.678Z,2.80
2023-02-04T08:30:44.641Z,2.97
2023-02-04T08:33:11.078Z,3.20
2023-02-04T08:35:37.493Z,2.95
2023-02-04T08:38:04.108Z,3.28
2023-02-04T08:40:31.081Z,3.35
2023-02-04T08:42:57.716Z,2.90
2023-02-04T08:45:24.108Z,3.13
2023-02-04T08:47:50.654Z,3.22
2023-02-04T08:50:17.095Z,2.97
2023-02-04T08:52:44.220Z,3.13
2023-02-04T08:55:10.788Z,3.20
2023-02-04T08:57:37.148Z,2.70
2023-02-04T09:00:03.671Z,2.95
2023-02-04T09:02:30.150Z,3.38
2023-02-04T09:04:56.888Z,3.03
2023-02-04T09:07:23.207Z,2.75
2023-02-04T09:09:50.032Z,3.38
2023-02-04T09:12:16.516Z,3.40
2023-02-04T09:14:42.954Z,3.25
2023-02-04T09:17:09.876Z,2.97
2023-02-04T09:19:36.513Z,3.38
2023-02-04T09:22:03.184Z,3.00
2023-02-04T09:24:29.677Z,3.03
2023-02-04T09:26:56.091Z,3.00
2023-02-04T09:29:22.902Z,3.30
2023-02-04T09:31:49.897Z,3.30
2023-02-04T09:34:16.523Z,3.42
2023-02-04T09:36:43.321Z,3.22
2023-02-04T09:39:09.799Z,2.95
2023-02-04T09:41:36.252Z,3.10
2023-02-04T09:44:02.850Z,3.20
2023-02-04T09:46:29.203Z,2.80
2023-02-04T09:48:55.775Z,3.25
2023-02-04T09:51:22.237Z,2.83
2023-02-04T09:53:48.648Z,3.38
2023-02-04T09:56:15.153Z,3.20
2023-02-04T09:58:41.704Z,2.88
2023-02-04T10:01:08.421Z,2.70
2023-02-04T10:03:35.246Z,2.47
2023-02-04T10:06:02.033Z,2.78
2023-02-04T10:08:28.424Z,2.92
2023-02-04T10:10:55.931Z,2.85
2023-02-04T10:13:23.655Z,2.67
2023-02-04T10:15:50.060Z,2.63
2023-02-04T10:18:16.480Z,2.90
2023-02-04T10:20:43.026Z,2.60
2023-02-04T10:23:10.550Z,2.67
2023-02-04T10:25:38.008Z,3.17
2023-02-04T10:28:04.711Z,2.72
2023-02-04T10:30:31.517Z,2.70
2023-02-04T10:32:58.835Z,2.85
2023-02-04T10:35:25.359Z,2.35
2023-02-04T10:37:51.964Z,2.50
2023-02-04T10:40:18.685Z,2.58
2023-02-04T10:42:45.617Z,2.63
2023-02-04T10:45:12.036Z,2.75
2023-02-04T10:47:38.452Z,2.53
2023-02-04T10:50:05.172Z,2.75
2023-02-04T10:52:31.565Z,2.42
2023-02-04T10:54:58.010Z,3.10
2023-02-04T10:57:24.428Z,2.60
2023-02-04T10:59:51.439Z,2.42
2023-02-04T11:02:18.775Z,2.47
2023-02-04T11:04:45.554Z,2.75
2023-02-04T11:07:11.976Z,2.20
2023-02-04T11:09:38.463Z,2.70
2023-02-04T11:12:05.458Z,2.83
2023-02-04T11:14:31.889Z,2.47
2023-02-04T11:16:58.343Z,2.42
2023-02-04T11:19:25.420Z,2.65
2023-02-04T11:21:51.849Z,2.50
2023-02-04T11:24:18.345Z,2.33
2023-02-04T11:26:44.785Z,2.45
2023-02-04T11:29:11.194Z,2.60
2023-02-04T11:31:37.812Z,2.97
2023-02-04T11:34:04.626Z,2.42
2023-02-04T11:36:31.064Z,2.60
2023-02-04T11:38:57.454Z,2.45
2023-02-04T11:41:23.815Z,2.60
2023-02-04T11:43:50.343Z,2.88
2023-02-04T11:46:17.140Z,2.45
2023-02-04T11:48:43.612Z,2.47
2023-02-04T11:51:10.027Z,2.40
2023-02-04T11:53:36.560Z,2.25
2023-02-04T11:56:03.048Z,2.60
2023-02-04T11:58:29.663Z,2.45
2023-02-04T12:00:56.032Z,2.58
2023-02-04T12:03:22.568Z,2.60
2023-02-04T12:05:49.185Z,2.05
2023-02-04T12:08:15.586Z,2.53
2023-02-04T12:10:42.012Z,2.60
2023-02-04T12:13:09.436Z,2.50
2023-02-04T12:15:36.708Z,2.47
2023-02-04T12:18:03.216Z,2.20
2023-02-04T12:20:29.669Z,2.17
2023-02-04T12:22:56.162Z,2.72
2023-02-04T12:25:22.732Z,2.33
2023-02-04T12:27:49.708Z,2.20
2023-02-04T12:30:16.187Z,2.53
2023-02-04T12:32:42.600Z,2.17
2023-02-04T12:35:09.240Z,2.58
2023-02-04T12:37:35.630Z,2.50
2023-02-04T12:40:02.089Z,2.67
2023-02-04T12:42:28.561Z,2.40
2023-02-04T12:44:55.129Z,2.22
2023-02-04T12:47:21.856Z,2.38
2023-02-04T12:49:48.258Z,2.25
2023-02-04T12:52:14.674Z,2.40
2023-02-04T12:54:41.755Z,2.38
2023-02-04T12:57:09.003Z,2.63
2023-02-04T12:59:35.415Z,2.60
2023-02-04T13:02:01.952Z,2.80
2023-02-04T13:04:28.377Z,2.85
2023-02-04T13:06:55.230Z,2.53
2023-02-04T13:09:21.725Z,2.95
2023-02-04T13:11:48.677Z,2.40
2023-02-04T13:14:15.197Z,2.80
2023-02-04T13:16:41.626Z,2.83
2023-02-04T13:19:08.136Z,2.28
2023-02-04T13:21:34.770Z,2.70
2023-02-04T13:24:01.798Z,2.33
2023-02-04T13:26:28.597Z,2.80
2023-02-04T13:28:55.078Z,2.70
2023-02-04T13:31:21.561Z,2.50
2023-02-04T13:33:47.997Z,2.42
2023-02-04T13:36:14.779Z,2.28
2023-02-04T13:38:41.862Z,2.55
2023-02-04T13:41:08.420Z,2.63
2023-02-04T13:43:35.124Z,2.33
2023-02-04T13:46:01.656Z,2.30
2023-02-04T13:48:28.235Z,2.50
2023-02-04T13:50:54.854Z,2.67
2023-02-04T13:53:21.517Z,2.55
2023-02-04T13:55:47.974Z,2.03
2023-02-04T13:58:14.674Z,2.58
2023-02-04T14:00:41.325Z,2.20
2023-02-04T14:03:07.852Z,2.40
2023-02-04T14:05:34.506Z,1.92
2023-02-04T14:08:01.247Z,2.40
2023-02-04T14:10:27.757Z,2.40
2023-02-04T14:12:54.290Z,2.33
2023-02-04T14:15:20.677Z,2.20
2023-02-04T14:17:47.487Z,2.45
2023-02-04T14:20:13.944Z,2.40
2023-02-04T14:22:40.579Z,2.60
2023-02-04T14:25:06.972Z,2.58
2023-02-04T14:27:33.662Z,2.75
2023-02-04T14:30:00.243Z,2.60
2023-02-04T14:32:27.182Z,2.67
2023-02-04T14:34:53.570Z,2.50
2023-02-04T14:37:19.996Z,2.40
2023-02-04T14:39:46.548Z,2.90
2023-02-04T14:42:12.992Z,2.60
2023-02-04T14:44:39.607Z,2.80
2023-02-04T14:47:06.030Z,2.40
2023-02-04T14:49:32.482Z,2.50
2023-02-04T14:51:59.041Z,2.20
2023-02-04T14:54:25.498Z,2.60
2023-02-04T14:56:53.100Z,2.72
2023-02-04T14:59:19.644Z,2.53
2023-02-04T15:01:45.999Z,2.65
2023-02-04T15:04:12.410Z,2.60
2023-02-04T15:06:38.753Z,2.65
2023-02-04T15:09:05.170Z,2.92
2023-02-04T15:11:31.560Z,2.80
2023-02-04T15:13:58.040Z,2.78
2023-02-04T15:16:24.921Z,2.67
2023-02-04T15:18:51.716Z,2.90
2023-02-04T15:21:18.383Z,2.92
2023-02-04T15:23:45.198Z,3.00
2023-02-04T15:26:11.558Z,3.30
2023-02-04T15:28:38.004Z,2.85
2023-02-04T15:31:04.426Z,2.97
2023-02-04T15:33:30.739Z,3.17
2023-02-04T15:35:57.657Z,3.30
2023-02-04T15:38:24.010Z,3.22
2023-02-04T15:40:50.714Z,3.17
2023-02-04T15:43:17.466Z,3.05
2023-02-04T15:45:44.062Z,3.30
2023-02-04T15:48:10.562Z,3.30
2023-02-04T15:50:37.124Z,2.97
2023-02-04T15:53:03.492Z,3.00
2023-02-04T15:55:29.871Z,3.10
2023-02-04T15:57:56.504Z,3.20
2023-02-04T16:00:23.017Z,3.17
2023-02-04T16:02:49.971Z,3.00
2023-02-04T16:05:16.583Z,2.65
2023-02-04T16:07:43.154Z,2.95
2023-02-04T16:10:09.593Z,2.90
2023-02-04T16:12:36.197Z,3.10
2023-02-04T16:15:02.566Z,3.60
2023-02-04T16:17:29.498Z,3.00
2023-02-04T16:19:56.096Z,3.05
2023-02-04T16:22:22.753Z,2.78
2023-02-04T16:24:49.212Z,3.38
2023-02-04T16:27:15.790Z,2.83
2023-02-04T16:29:42.291Z,3.05
2023-02-04T16:32:08.583Z,2.85
2023-02-04T16:34:34.876Z,2.90
2023-02-04T16:37:01.249Z,3.42
2023-02-04T16:39:27.700Z,3.40
2023-02-04T16:41:54.080Z,2.70
2023-02-04T16:44:20.644Z,2.92
2023-02-04T16:46:47.042Z,3.10
2023-02-04T16:49:13.967Z,3.38
2023-02-04T16:51:40.796Z,2.97
2023-02-04T16:54:07.695Z,2.85
2023-02-04T16:56:34.043Z,2.58
2023-02-04T16:59:01.274Z,2.72
2023-02-04T17:01:28.116Z,2.83
2023-02-04T17:03:54.532Z,2.90
2023-02-04T17:06:21.039Z,2.90
2023-02-04T17:08:47.416Z,2.58
2023-02-04T17:11:13.725Z,2.97
2023-02-04T17:13:40.204Z,2.75
2023-02-04T17:16:06.892Z,2.83
2023-02-04T17:18:33.489Z,3.13
2023-02-04T17:20:59.847Z,3.08
2023-02-04T17:23:26.396Z,2.90
2023-02-04T17:25:52.789Z,2.90
2023-02-04T17:28:19.219Z,2.90
2023-02-04T17:30:45.837Z,3.03
2023-02-04T17:33:12.248Z,2.78
2023-02-04T17:35:38.635Z,3.55
2023-02-04T17:38:05.012Z,3.03
2023-02-04T17:40:31.546Z,2.88
2023-02-04T17:42:57.927Z,3.00
2023-02-04T17:45:24.262Z,3.17
2023-02-04T17:47:50.721Z,3.05
2023-02-04T17:50:17.138Z,3.03
2023-02-04T17:52:43.694Z,2.75
2023-02-04T17:55:10.086Z,3.13
2023-02-04T17:57:36.499Z,3.38
2023-02-04T18:00:02.961Z,3.53
2023-02-04T18:02:29.574Z,4.03
2023-02-04T18:04:56.151Z,3.50
2023-02-04T18:07:22.804Z,3.80
2023-02-04T18:09:49.236Z,3.75
2023-02-04T18:12:15.725Z,4.03
2023-02-04T18:14:42.465Z,3.70
2023-02-04T18:17:09.878Z,3.78
2023-02-04T18:19:36.411Z,4.03
2023-02-04T18:22:03.126Z,3.15
2023-02-04T18:24:29.592Z,3.28
2023-02-04T18:26:56.463Z,3.28
2023-02-04T18:29:22.855Z,3.65
2023-02-04T18:31:49.721Z,3.65
2023-02-04T18:34:16.494Z,3.60
2023-02-04T18:36:42.926Z,3.78
2023-02-04T18:39:09.323Z,4.28
2023-02-04T18:41:35.670Z,5.00
2023-02-04T18:44:02.043Z,5.00
2023-02-04T18:46:28.497Z,5.13
2023-02-04T18:48:55.543Z,5.43
2023-02-04T18:51:22.352Z,5.45
2023-02-04T18:53:48.699Z,5.78
2023-02-04T18:56:15.187Z,5.40
2023-02-04T18:58:41.561Z,5.25
2023-02-04T19:01:07.897Z,5.80
2023-02-04T19:03:34.322Z,5.22
2023-02-04T19:06:00.603Z,5.32
2023-02-04T19:08:27.625Z,5.25
2023-02-04T19:10:54.031Z,5.40
2023-02-04T19:13:20.797Z,5.05
2023-02-04T19:15:47.099Z,5.03
2023-02-04T19:18:13.490Z,5.13
2023-02-04T19:20:39.813Z,4.55
2023-02-04T19:23:07.027Z,5.43
2023-02-04T19:25:33.592Z,5.25
2023-02-04T19:28:00.353Z,4.93
2023-02-04T19:30:27.035Z,4.70
2023-02-04T19:32:53.524Z,5.15
2023-02-04T19:35:19.970Z,5.40
2023-02-04T19:37:46.460Z,5.40
2023-02-04T19:40:12.921Z,5.72
2023-02-04T19:42:39.375Z,5.45
2023-02-04T19:45:05.785Z,5.25
2023-02-04T19:47:32.562Z,5.35
2023-02-04T19:49:59.055Z,5.22
2023-02-04T19:52:25.351Z,5.65
2023-02-04T19:54:51.801Z,4.85
2023-02-04T19:57:18.274Z,4.63
2023-02-04T19:59:44.644Z,4.78
2023-02-04T20:02:11.511Z,5.15
2023-02-04T20:04:37.898Z,5.72
2023-02-04T20:07:04.279Z,5.00
2023-02-04T20:09:30.786Z,4.97
2023-02-04T20:11:57.620Z,5.03
2023-02-04T20:14:24.017Z,4.93
2023-02-04T20:16:50.389Z,4.75
2023-02-04T20:19:16.750Z,4.95
2023-02-04T20:21:43.694Z,4.85
2023-02-04T20:24:10.064Z,4.88
2023-02-04T20:26:36.503Z,4.97
2023-02-04T20:29:03.737Z,5.03
2023-02-04T20:31:30.216Z,4.40
2023-02-04T20:33:56.723Z,4.60
2023-02-04T20:36:23.045Z,4.40
2023-02-04T20:38:49.357Z,4.75
2023-02-04T20:41:15.650Z,4.53
2023-02-04T20:43:42.157Z,4.78
2023-02-04T20:46:08.885Z,4.75
2023-02-04T20:48:35.405Z,4.00
2023-02-04T20:51:02.501Z,4.80
2023-02-04T20:53:29.197Z,4.28
2023-02-04T20:55:56.081Z,4.15
2023-02-04T20:58:22.616Z,4.35
2023-02-04T21:00:48.908Z,3.90
2023-02-04T21:03:15.506Z,3.80
2023-02-04T21:05:41.893Z,4.18
2023-02-04T21:08:08.428Z,3.97
2023-02-04T21:10:34.813Z,3.90
2023-02-04T21:13:01.268Z,4.18
2023-02-04T21:15:27.592Z,3.95
2023-02-04T21:17:54.566Z,4.00
2023-02-04T21:20:21.389Z,4.10
2023-02-04T21:22:48.324Z,3.97
2023-02-04T21:25:14.947Z,3.83
2023-02-04T21:27:41.418Z,4.50
2023-02-04T21:30:08.296Z,4.07
2023-02-04T21:32:35.202Z,4.00
2023-02-04T21:35:01.748Z,4.45
2023-02-04T21:37:28.452Z,4.45
2023-02-04T21:39:55.242Z,4.20
2023-02-04T21:42:21.590Z,4.57
2023-02-04T21:44:48.082Z,4.47
2023-02-04T21:47:14.465Z,4.57
2023-02-04T21:49:43.016Z,4.82
2023-02-04T21:52:09.465Z,3.97
2023-02-04T21:54:35.886Z,4.47
2023-02-04T21:57:02.699Z,4.07
2023-02-04T21:59:29.484Z,3.97
2023-02-04T22:01:56.415Z,4.40
2023-02-04T22:04:22.956Z,4.47
2023-02-04T22:06:49.444Z,3.90
2023-02-04T22:09:15.959Z,4.10
2023-02-04T22:11:42.358Z,4.20
2023-02-04T22:14:08.850Z,4.47
2023-02-04T22:16:35.220Z,4.65
2023-02-04T22:19:01.654Z,3.90
2023-02-04T22:21:28.076Z,3.70
2023-02-04T22:23:54.648Z,4.20
2023-02-04T22:26:21.150Z,3.70
2023-02-04T22:28:47.904Z,5.00
2023-02-04T22:31:14.771Z,4.50
2023-02-04T22:33:41.767Z,4.40
2023-02-04T22:36:08.872Z,4.00
2023-02-04T22:38:35.669Z,3.97
2023-02-04T22:41:02.221Z,4.47
2023-02-04T22:43:28.808Z,4.28
2023-02-04T22:45:55.153Z,4.07
2023-02-04T22:48:21.651Z,3.90
2023-02-04T22:50:47.993Z,4.03
2023-02-04T22:53:14.472Z,3.60
2023-02-04T22:55:41.341Z,4.35
2023-02-04T22:58:08.105Z,3.60
2023-02-04T23:00:34.617Z,3.63
2023-02-04T23:03:01.561Z,4.10
2023-02-04T23:05:27.968Z,3.80
2023-02-04T23:07:54.500Z,3.88
2023-02-04T23:10:20.932Z,4.15
2023-02-04T23:12:47.360Z,3.65
2023-02-04T23:15:14.419Z,4.03
2023-02-04T23:17:40.816Z,3.88
2023-02-04T23:20:07.971Z,4.30
2023-02-04T23:22:34.402Z,3.72
2023-02-04T23:25:00.738Z,3.85
2023-02-04T23:27:27.140Z,3.70
2023-02-04T23:29:53.659Z,4.53
2023-02-04T23:32:20.288Z,4.22
2023-02-04T23:34:47.187Z,4.18
2023-02-04T23:37:13.583Z,3.85
2023-02-04T23:39:39.987Z,4.32
2023-02-04T23:42:06.265Z,3.65
2023-02-04T23:44:32.967Z,3.92
2023-02-04T23:46:59.672Z,3.70
2023-02-04T23:49:26.189Z,4.38
2023-02-04T23:51:52.512Z,4.40
2023-02-04T23:54:19.204Z,3.60
2023-02-04T23:56:45.866Z,3.90
2023-02-04T23:59:12.456Z,3.40
